Time;durP1;ratioP1;P1;durP2;ratioP2;P2;SDS_P1;SDS_P2;PMS_P1;PMS_P2;Temp;Humidity;BMP_temperature;BMP_pressure;BME280_temperature;BME280_humidity;BME280_pressure;Samples;Min_cycle;Max_cycle;Signal;HPM_P1;HPM_P2
2022/11/20 00:01:13;;;;;;;14.10;8.20;;;4.70;99.90;;;;;;5042629;28;20472;-70
2022/11/20 00:03:38;;;;;;;13.50;7.97;;;4.70;99.90;;;;;;5042352;28;20470;-71
2022/11/20 00:06:06;;;;;;;12.43;7.47;;;4.70;99.90;;;;;;5035976;28;20966;-70
2022/11/20 00:08:32;;;;;;;13.03;7.63;;;4.70;99.90;;;;;;5044900;28;20300;-71
2022/11/20 00:11:02;;;;;;;14.50;7.67;;;4.70;99.90;;;;;;5040129;28;20500;-69
2022/11/20 00:13:27;;;;;;;12.70;7.70;;;4.70;99.90;;;;;;5036067;28;20190;-69
2022/11/20 00:16:00;;;;;;;13.00;7.67;;;4.80;99.90;;;;;;5042300;28;20858;-70
2022/11/20 00:18:27;;;;;;;12.63;7.40;;;4.70;99.90;;;;;;5033566;28;20220;-70
2022/11/20 00:20:52;;;;;;;15.40;7.73;;;4.70;99.90;;;;;;5038793;28;20470;-68
2022/11/20 00:23:18;;;;;;;12.30;7.57;;;4.80;99.90;;;;;;5040442;28;20455;-70
2022/11/20 00:25:44;;;;;;;12.43;7.43;;;4.80;99.90;;;;;;5043454;28;20165;-71
2022/11/20 00:28:09;;;;;;;12.00;7.47;;;4.70;99.90;;;;;;5034647;28;20188;-69
2022/11/20 00:30:35;;;;;;;11.10;6.90;;;4.70;99.90;;;;;;5034094;28;20550;-70
2022/11/20 00:33:00;;;;;;;11.30;7.30;;;4.80;99.90;;;;;;5032256;28;20744;-70
2022/11/20 00:35:26;;;;;;;9.43;6.33;;;4.80;99.90;;;;;;5031763;28;20174;-70
2022/11/20 00:37:51;;;;;;;11.93;7.33;;;4.80;99.90;;;;;;5034738;28;20559;-71
2022/11/20 00:40:17;;;;;;;11.47;7.00;;;4.90;99.90;;;;;;5036503;28;20201;-71
2022/11/20 00:42:42;;;;;;;13.90;6.67;;;4.80;99.90;;;;;;5036636;28;20671;-71
2022/11/20 00:45:08;;;;;;;15.47;7.10;;;4.80;99.90;;;;;;5044672;28;20624;-71
2022/11/20 00:47:33;;;;;;;8.33;6.00;;;4.80;99.90;;;;;;5037837;28;20182;-70
2022/11/20 00:49:59;;;;;;;9.97;6.40;;;4.90;99.90;;;;;;5042433;28;20284;-71
2022/11/20 00:52:24;;;;;;;10.00;6.87;;;4.90;99.90;;;;;;5037738;28;20189;-72
2022/11/20 00:54:50;;;;;;;12.47;6.30;;;4.90;99.90;;;;;;5024780;28;20252;-71
2022/11/20 00:57:15;;;;;;;12.07;7.13;;;4.90;99.90;;;;;;5037891;28;20601;-71
2022/11/20 00:59:41;;;;;;;9.33;6.10;;;4.80;99.90;;;;;;5039993;28;20610;-71
2022/11/20 01:02:06;;;;;;;10.13;5.97;;;4.80;99.90;;;;;;5022164;28;20178;-70
2022/11/20 01:04:32;;;;;;;9.83;6.80;;;4.80;99.90;;;;;;5043278;28;20561;-70
2022/11/20 01:06:57;;;;;;;11.07;6.60;;;4.80;99.90;;;;;;5034037;28;20189;-71
2022/11/20 01:09:23;;;;;;;9.60;6.33;;;4.80;99.90;;;;;;5042978;28;20739;-71
2022/11/20 01:11:48;;;;;;;10.73;7.10;;;4.90;99.90;;;;;;5028496;28;20179;-71
2022/11/20 01:14:16;;;;;;;9.90;6.40;;;4.90;99.90;;;;;;5028958;28;20853;-70
2022/11/20 01:16:48;;;;;;;10.53;6.33;;;4.90;99.90;;;;;;5029078;28;20181;-71
2022/11/20 01:19:16;;;;;;;9.90;6.83;;;4.90;99.90;;;;;;5029971;28;20401;-69
2022/11/20 01:21:44;;;;;;;13.57;6.03;;;4.90;99.90;;;;;;5048377;28;21198;-71
2022/11/20 01:24:15;;;;;;;12.30;7.13;;;5.00;99.90;;;;;;5042275;28;20441;-71
2022/11/20 01:26:42;;;;;;;11.80;6.70;;;5.00;99.90;;;;;;5030167;28;20413;-71
2022/11/20 01:29:14;;;;;;;11.50;7.30;;;5.00;99.90;;;;;;5024723;28;20427;-71
2022/11/20 01:31:39;;;;;;;9.70;6.00;;;4.90;99.90;;;;;;5036402;28;20413;-71
2022/11/20 01:34:09;;;;;;;9.20;6.07;;;5.00;99.90;;;;;;5022034;28;20712;-71
2022/11/20 01:36:35;;;;;;;10.80;6.87;;;5.00;99.90;;;;;;5038873;28;20177;-71
2022/11/20 01:39:04;;;;;;;9.80;5.83;;;5.00;99.90;;;;;;5031641;28;20541;-71
2022/11/20 01:44:42;;;;;;;8.70;6.67;;;5.10;99.90;;;;;;5030015;28;20525;-71
2022/11/20 01:47:09;;;;;;;11.40;6.80;;;5.00;99.90;;;;;;5036277;28;20429;-70
2022/11/20 01:49:39;;;;;;;12.20;6.60;;;5.00;99.90;;;;;;5028810;28;20429;-70
2022/11/20 01:52:34;;;;;;;10.43;6.47;;;5.10;99.90;;;;;;5040194;28;20814;-71
2022/11/20 01:55:12;;;;;;;10.97;6.37;;;5.20;99.90;;;;;;5031063;28;20447;-70
2022/11/20 01:57:39;;;;;;;10.20;6.37;;;5.20;99.90;;;;;;5029591;28;20813;-71
2022/11/20 02:00:11;;;;;;;10.87;6.30;;;5.10;99.90;;;;;;5023228;28;20446;-71
2022/11/20 02:02:39;;;;;;;13.93;6.80;;;5.10;99.90;;;;;;5022600;28;20515;-71
2022/11/20 02:05:17;;;;;;;13.77;7.30;;;5.10;99.90;;;;;;5029488;28;20752;-71
2022/11/20 02:07:43;;;;;;;11.13;7.50;;;5.10;99.90;;;;;;5037778;28;20439;-71
2022/11/20 02:10:09;;;;;;;18.00;7.53;;;5.20;99.90;;;;;;5035334;28;20428;-71
2022/11/20 02:15:18;;;;;;;12.93;7.70;;;5.10;99.90;;;;;;5036373;28;20762;-71
2022/11/20 02:17:44;;;;;;;19.00;7.60;;;5.20;99.90;;;;;;5039479;28;20514;-71
2022/11/20 02:20:10;;;;;;;17.20;8.73;;;5.20;99.90;;;;;;5022356;28;20553;-71
2022/11/20 02:22:46;;;;;;;16.10;8.10;;;5.30;99.90;;;;;;5020149;28;20168;-69
2022/11/20 02:25:12;;;;;;;15.10;8.20;;;5.30;99.90;;;;;;5041433;28;20407;-71
2022/11/20 02:27:38;;;;;;;12.80;7.20;;;5.30;99.90;;;;;;5030214;28;20942;-71
2022/11/20 02:30:10;;;;;;;13.73;8.60;;;5.20;99.90;;;;;;5046847;28;20180;-71
2022/11/20 02:32:37;;;;;;;18.87;9.53;;;5.30;99.90;;;;;;5037554;28;20563;-70
2022/11/20 02:35:17;;;;;;;20.30;9.57;;;5.20;99.90;;;;;;5027698;28;20416;-69
2022/11/20 02:37:44;;;;;;;19.13;9.70;;;5.20;99.90;;;;;;5036050;28;20513;-71
2022/11/20 02:40:10;;;;;;;17.60;9.17;;;5.30;99.90;;;;;;5026322;28;20451;-71
2022/11/20 02:42:37;;;;;;;26.60;10.03;;;5.30;99.90;;;;;;5038592;28;21040;-70
2022/11/20 02:45:04;;;;;;;17.60;9.40;;;5.30;99.90;;;;;;5038553;28;20814;-71
2022/11/20 02:47:29;;;;;;;19.37;8.87;;;5.30;99.90;;;;;;5038816;28;20427;-71
2022/11/20 02:49:55;;;;;;;23.57;10.67;;;;;;;;;;5038029;28;21001;-71
2022/11/20 02:52:21;;;;;;;19.33;9.90;;;5.40;99.90;;;;;;5033754;28;20676;-70
2022/11/20 02:54:46;;;;;;;21.03;9.87;;;5.40;99.90;;;;;;5020885;28;20206;-71
2022/11/20 02:57:12;;;;;;;17.07;10.17;;;5.40;99.90;;;;;;5027942;28;20213;-71
2022/11/20 02:59:37;;;;;;;18.50;10.20;;;5.30;99.90;;;;;;5041310;28;20586;-70
2022/11/20 03:02:03;;;;;;;22.97;12.17;;;5.40;99.90;;;;;;5021657;28;20293;-71
2022/11/20 03:04:29;;;;;;;22.67;11.60;;;;;;;;;;5043109;28;20200;-71
2022/11/20 03:06:54;;;;;;;19.10;10.90;;;5.40;99.90;;;;;;5029716;28;20184;-71
2022/11/20 03:09:20;;;;;;;21.17;10.90;;;5.30;99.90;;;;;;5036495;28;20248;-71
2022/11/20 03:11:45;;;;;;;21.60;10.40;;;5.40;99.90;;;;;;5047460;28;20177;-71
2022/11/20 03:14:11;;;;;;;20.73;10.87;;;5.40;99.90;;;;;;5036341;28;20206;-71
2022/11/20 03:16:36;;;;;;;21.63;10.70;;;5.40;99.90;;;;;;5037912;28;20166;-71
2022/11/20 03:19:02;;;;;;;24.67;10.80;;;5.40;99.90;;;;;;5038940;28;20828;-71
2022/11/20 03:21:27;;;;;;;30.30;12.23;;;5.50;99.90;;;;;;5026007;28;20193;-71
2022/11/20 03:23:54;;;;;;;36.13;18.30;;;5.60;99.90;;;;;;5033841;28;20190;-71
2022/11/20 03:26:22;;;;;;;34.20;16.20;;;5.60;99.90;;;;;;5032042;28;20256;-71
2022/11/20 03:28:53;;;;;;;22.23;12.10;;;5.60;99.90;;;;;;5040783;28;20404;-71
2022/11/20 03:31:22;;;;;;;28.33;13.07;;;5.60;99.90;;;;;;5042571;28;20477;-71
2022/11/20 03:33:47;;;;;;;29.00;13.07;;;5.70;99.90;;;;;;5029130;28;20472;-71
2022/11/20 03:36:15;;;;;;;32.37;12.90;;;5.70;99.90;;;;;;5029523;28;20435;-70
2022/11/20 03:38:41;;;;;;;24.50;12.60;;;5.60;99.90;;;;;;5039747;28;20170;-70
2022/11/20 03:41:10;;;;;;;27.87;13.30;;;5.70;99.90;;;;;;5040308;28;20458;-70
2022/11/20 03:43:36;;;;;;;27.47;12.57;;;5.80;99.90;;;;;;5032628;28;20874;-69
2022/11/20 03:46:01;;;;;;;33.40;13.60;;;5.80;99.90;;;;;;5024197;28;20435;-70
2022/11/20 03:48:27;;;;;;;32.20;12.60;;;5.80;99.90;;;;;;5032960;28;20165;-71
2022/11/20 03:51:06;;;;;;;25.20;13.83;;;5.90;99.90;;;;;;5029153;28;20181;-69
2022/11/20 03:53:31;;;;;;;32.33;13.60;;;5.90;99.90;;;;;;5017598;28;20448;-69
2022/11/20 03:55:57;;;;;;;27.10;12.47;;;5.90;99.90;;;;;;5038448;28;20430;-68
2022/11/20 03:58:22;;;;;;;38.03;12.53;;;5.80;99.90;;;;;;5040639;28;20726;-71
2022/11/20 04:00:48;;;;;;;29.33;12.17;;;5.80;99.90;;;;;;5041968;28;20248;-70
2022/11/20 04:03:13;;;;;;;19.60;11.33;;;5.80;99.90;;;;;;5036019;28;20204;-69
2022/11/20 04:05:39;;;;;;;26.97;11.90;;;5.80;99.90;;;;;;5026159;28;20276;-69
2022/11/20 04:08:05;;;;;;;35.80;13.60;;;5.70;99.90;;;;;;5036900;28;20166;-70
2022/11/20 04:10:30;;;;;;;28.40;12.90;;;5.70;99.90;;;;;;5048449;28;20593;-69
2022/11/20 04:12:56;;;;;;;30.33;12.23;;;;;;;;;;5038972;28;20198;-70
2022/11/20 04:15:22;;;;;;;28.27;12.70;;;5.80;99.90;;;;;;5035324;28;20188;-69
2022/11/20 04:17:47;;;;;;;33.27;13.30;;;5.80;99.90;;;;;;5041058;28;20435;-70
2022/11/20 04:20:13;;;;;;;24.87;11.80;;;5.80;99.90;;;;;;5045688;28;20200;-70
2022/11/20 04:22:38;;;;;;;28.10;12.40;;;5.90;99.90;;;;;;5025923;28;20260;-69
2022/11/20 04:25:04;;;;;;;27.53;12.90;;;5.90;99.90;;;;;;5043351;28;20188;-69
2022/11/20 04:27:31;;;;;;;24.57;12.23;;;6.00;99.90;;;;;;5041400;28;20185;-70
2022/11/20 04:29:56;;;;;;;36.30;14.07;;;6.00;99.90;;;;;;5043599;28;20177;-70
2022/11/20 04:32:22;;;;;;;29.10;12.20;;;6.00;99.90;;;;;;5038037;28;21201;-70
2022/11/20 04:34:47;;;;;;;31.23;12.40;;;6.00;99.90;;;;;;5028856;28;20297;-70
2022/11/20 04:37:13;;;;;;;28.90;12.20;;;6.00;99.90;;;;;;5032351;28;20196;-70
2022/11/20 04:39:38;;;;;;;25.93;11.50;;;6.10;99.90;;;;;;5043448;28;20605;-70
2022/11/20 04:44:48;;;;;;;32.50;13.27;;;6.10;99.90;;;;;;5043798;28;20203;-70
2022/11/20 04:47:14;;;;;;;25.77;12.50;;;6.10;99.90;;;;;;5045195;28;20497;-70
2022/11/20 04:49:39;;;;;;;28.83;12.53;;;6.10;99.90;;;;;;5043557;28;20439;-68
2022/11/20 04:52:05;;;;;;;26.60;12.27;;;6.20;99.90;;;;;;5037555;28;20186;-70
2022/11/20 04:54:31;;;;;;;23.10;12.20;;;6.20;99.90;;;;;;5035843;28;20631;-70
2022/11/20 04:56:56;;;;;;;19.73;11.60;;;6.20;99.90;;;;;;5044354;28;20559;-70
2022/11/20 04:59:22;;;;;;;23.03;11.47;;;6.30;99.90;;;;;;5043212;28;20196;-70
2022/11/20 05:01:47;;;;;;;27.10;11.57;;;6.20;99.90;;;;;;5032757;28;20839;-70
2022/11/20 05:04:13;;;;;;;30.63;11.60;;;6.20;99.90;;;;;;5050486;28;20205;-70
2022/11/20 05:06:38;;;;;;;25.03;12.23;;;6.20;99.90;;;;;;5033244;28;20182;-70
2022/11/20 05:09:04;;;;;;;24.23;12.27;;;6.20;99.90;;;;;;5043042;28;20200;-69
2022/11/20 05:11:31;;;;;;;22.27;11.53;;;6.30;99.90;;;;;;5018758;28;20245;-71
2022/11/20 05:13:58;;;;;;;26.20;12.50;;;6.20;99.90;;;;;;5042199;28;20638;-70
2022/11/20 05:16:24;;;;;;;24.60;12.47;;;6.20;99.90;;;;;;5051753;28;20443;-70
2022/11/20 05:18:51;;;;;;;28.47;12.27;;;6.20;99.90;;;;;;5038730;28;20441;-70
2022/11/20 05:21:17;;;;;;;22.87;11.67;;;6.20;99.90;;;;;;5027304;28;20205;-70
2022/11/20 05:23:44;;;;;;;23.90;11.60;;;6.20;99.90;;;;;;5033713;28;20440;-70
2022/11/20 05:26:16;;;;;;;25.23;12.73;;;6.20;99.90;;;;;;5049994;28;20423;-70
2022/11/20 05:28:41;;;;;;;26.33;13.47;;;6.20;99.90;;;;;;5024463;28;20433;-70
2022/11/20 05:31:13;;;;;;;25.70;13.40;;;6.20;99.90;;;;;;5034546;28;20827;-69
2022/11/20 05:33:43;;;;;;;25.53;13.33;;;6.20;99.90;;;;;;5034390;28;20225;-70
2022/11/20 05:36:09;;;;;;;28.47;13.57;;;6.20;99.90;;;;;;5028591;28;20582;-70
2022/11/20 05:38:35;;;;;;;32.90;14.37;;;6.20;99.90;;;;;;5034973;28;20437;-69
2022/11/20 05:41:10;;;;;;;32.43;13.63;;;6.20;99.90;;;;;;5031898;28;20463;-70
2022/11/20 05:43:37;;;;;;;26.77;12.40;;;6.20;99.90;;;;;;5042480;28;20193;-70
2022/11/20 05:46:04;;;;;;;24.77;12.77;;;6.20;99.90;;;;;;5047728;28;20435;-70
2022/11/20 05:48:30;;;;;;;26.27;12.83;;;6.20;99.90;;;;;;5033466;28;20532;-70
2022/11/20 05:50:58;;;;;;;27.00;12.47;;;6.10;99.90;;;;;;5011788;28;20882;-69
2022/11/20 05:53:23;;;;;;;23.87;12.33;;;6.10;99.90;;;;;;5026363;28;20459;-70
2022/11/20 05:56:06;;;;;;;23.70;11.40;;;6.00;99.90;;;;;;5034020;28;21077;-69
2022/11/20 05:58:33;;;;;;;28.93;11.40;;;6.10;99.90;;;;;;5054937;28;20181;-70
2022/11/20 06:01:14;;;;;;;24.40;12.70;;;6.20;99.90;;;;;;5029414;28;20487;-69
2022/11/20 06:03:42;;;;;;;27.87;12.80;;;6.30;99.90;;;;;;5035399;28;20459;-69
2022/11/20 06:06:08;;;;;;;30.37;12.93;;;6.30;99.90;;;;;;5027640;28;20867;-70
2022/11/20 06:08:34;;;;;;;22.07;11.97;;;6.40;99.90;;;;;;5030913;28;20465;-70
2022/11/20 06:11:07;;;;;;;31.03;13.50;;;6.30;99.90;;;;;;5044583;28;20414;-69
2022/11/20 06:13:33;;;;;;;24.20;12.60;;;6.40;99.90;;;;;;5036236;28;20289;-70
2022/11/20 06:15:59;;;;;;;23.47;12.13;;;6.30;99.90;;;;;;5030433;28;20420;-69
2022/11/20 06:18:26;;;;;;;26.80;12.67;;;6.20;99.90;;;;;;5033739;28;20511;-70
2022/11/20 06:21:06;;;;;;;20.40;10.57;;;6.20;99.90;;;;;;5046907;28;20193;-69
2022/11/20 06:23:33;;;;;;;20.37;10.83;;;6.20;99.90;;;;;;5037281;28;20454;-70
2022/11/20 06:26:08;;;;;;;20.93;11.27;;;6.20;99.90;;;;;;5035836;28;20492;-68
2022/11/20 06:28:34;;;;;;;22.17;10.73;;;6.20;99.90;;;;;;5027928;28;20435;-70
2022/11/20 06:31:00;;;;;;;29.27;12.80;;;6.30;99.90;;;;;;5029091;28;20412;-69
2022/11/20 06:33:25;;;;;;;21.53;11.30;;;6.40;99.90;;;;;;5030209;28;20293;-70
2022/11/20 06:35:51;;;;;;;18.77;11.00;;;6.50;99.90;;;;;;5025463;28;20264;-70
2022/11/20 06:38:17;;;;;;;17.33;10.47;;;6.50;99.90;;;;;;5035214;28;20190;-69
2022/11/20 06:40:42;;;;;;;16.57;9.63;;;6.50;99.90;;;;;;5043110;28;20222;-70
2022/11/20 06:43:11;;;;;;;16.17;9.90;;;6.70;99.90;;;;;;5025500;28;20595;-68
2022/11/20 06:45:36;;;;;;;21.43;10.10;;;6.70;99.90;;;;;;5020682;28;20186;-68
2022/11/20 06:48:02;;;;;;;15.77;9.00;;;6.70;99.90;;;;;;5022651;28;20428;-69
2022/11/20 06:50:28;;;;;;;17.03;9.20;;;6.70;99.90;;;;;;5043196;28;20212;-68
2022/11/20 06:52:53;;;;;;;17.47;9.60;;;6.60;99.90;;;;;;5035493;28;20483;-70
2022/11/20 06:55:19;;;;;;;18.77;9.90;;;6.60;99.90;;;;;;5024348;28;20281;-70
2022/11/20 06:57:44;;;;;;;16.70;9.73;;;6.60;99.90;;;;;;5027810;28;20176;-70
2022/11/20 07:00:11;;;;;;;18.60;9.37;;;6.70;99.90;;;;;;5042652;28;20204;-70
2022/11/20 07:02:36;;;;;;;16.00;9.33;;;6.70;99.90;;;;;;5032959;28;20190;-69
2022/11/20 07:05:02;;;;;;;20.70;10.00;;;6.70;99.90;;;;;;5025578;28;20468;-70
2022/11/20 07:07:27;;;;;;;20.70;10.40;;;6.70;99.90;;;;;;5033004;28;20192;-70
2022/11/20 07:09:53;;;;;;;18.93;9.63;;;6.80;99.90;;;;;;5029139;28;20178;-70
2022/11/20 07:12:18;;;;;;;20.03;10.60;;;6.70;99.90;;;;;;5020025;28;20178;-69
2022/11/20 07:14:44;;;;;;;18.00;9.90;;;6.70;99.90;;;;;;5036417;28;20193;-70
2022/11/20 07:17:09;;;;;;;17.03;10.70;;;6.60;99.90;;;;;;5034136;28;20262;-70
2022/11/20 07:19:35;;;;;;;30.40;15.40;;;6.60;99.90;;;;;;5035174;28;20206;-70
2022/11/20 07:22:01;;;;;;;20.20;10.90;;;6.60;99.90;;;;;;5043654;28;20296;-70
2022/11/20 07:24:26;;;;;;;17.30;10.10;;;6.60;99.90;;;;;;5039267;28;20197;-70
2022/11/20 07:26:51;;;;;;;18.90;9.90;;;6.60;99.90;;;;;;5042365;28;20185;-70
2022/11/20 07:29:17;;;;;;;18.23;10.00;;;6.60;99.90;;;;;;5029387;28;20185;-70
2022/11/20 07:31:43;;;;;;;23.03;10.40;;;6.70;99.90;;;;;;5024962;28;20577;-72
2022/11/20 07:34:09;;;;;;;25.50;16.57;;;6.60;99.90;;;;;;5025336;28;20779;-71
2022/11/20 07:36:34;;;;;;;15.87;9.90;;;6.60;99.90;;;;;;5025764;28;20707;-70
2022/11/20 07:39:00;;;;;;;16.20;9.60;;;6.70;99.90;;;;;;5035941;28;20580;-70
2022/11/20 07:41:27;;;;;;;16.27;9.13;;;6.70;99.90;;;;;;5029369;28;20272;-70
2022/11/20 07:43:52;;;;;;;21.67;11.80;;;6.70;99.90;;;;;;5043411;28;20415;-71
2022/11/20 07:46:18;;;;;;;12.37;8.20;;;6.80;99.90;;;;;;5029955;28;20632;-72
2022/11/20 07:48:43;;;;;;;12.07;7.70;;;6.90;99.90;;;;;;5052419;28;20640;-71
2022/11/20 07:51:09;;;;;;;11.37;7.60;;;7.00;99.90;;;;;;5031291;28;20182;-71
2022/11/20 07:53:36;;;;;;;12.70;7.30;;;7.00;99.90;;;;;;5028729;28;20213;-71
2022/11/20 07:56:02;;;;;;;9.60;6.73;;;7.00;99.90;;;;;;5043914;28;20553;-72
2022/11/20 07:58:32;;;;;;;9.70;6.37;;;7.10;99.90;;;;;;5031561;28;20220;-72
2022/11/20 08:01:02;;;;;;;8.80;6.10;;;7.20;99.90;;;;;;5043690;28;20529;-72
2022/11/20 08:03:28;;;;;;;12.70;5.83;;;7.50;99.90;;;;;;5032536;28;20464;-73
2022/11/20 08:05:53;;;;;;;8.07;5.77;;;7.60;99.90;;;;;;5031567;28;20418;-71
2022/11/20 08:08:19;;;;;;;11.13;5.60;;;7.80;99.90;;;;;;5034333;28;20553;-72
2022/11/20 08:10:45;;;;;;;8.93;5.97;;;8.10;99.90;;;;;;5031801;28;20212;-72
2022/11/20 08:15:54;;;;;;;10.50;5.87;;;8.10;99.90;;;;;;5042986;28;20246;-72
2022/11/20 08:18:20;;;;;;;9.33;5.63;;;8.20;99.90;;;;;;5044681;28;20824;-71
2022/11/20 08:20:45;;;;;;;18.13;10.60;;;8.20;99.90;;;;;;5037893;28;20288;-71
2022/11/20 08:23:11;;;;;;;10.43;7.20;;;8.00;99.90;;;;;;5031494;28;20201;-70
2022/11/20 08:25:38;;;;;;;12.97;8.50;;;8.00;99.90;;;;;;5021786;28;20182;-71
2022/11/20 08:28:09;;;;;;;10.77;7.60;;;7.80;99.90;;;;;;5043926;28;20165;-71
2022/11/20 08:30:36;;;;;;;11.90;8.30;;;7.80;99.90;;;;;;5033556;28;20437;-71
2022/11/20 08:33:10;;;;;;;9.77;5.90;;;7.80;99.90;;;;;;5024156;28;20474;-71
2022/11/20 08:35:37;;;;;;;20.63;11.40;;;7.80;99.90;;;;;;5027166;28;20555;-71
2022/11/20 08:38:04;;;;;;;23.33;8.03;;;7.70;99.90;;;;;;5031497;28;20435;-69
2022/11/20 08:40:30;;;;;;;17.43;10.00;;;7.90;99.90;;;;;;5029443;28;20464;-71
2022/11/20 08:42:56;;;;;;;8.60;5.80;;;8.10;99.90;;;;;;5031000;28;20440;-71
2022/11/20 08:45:22;;;;;;;9.53;5.10;;;8.20;99.90;;;;;;5025105;28;20441;-71
2022/11/20 08:47:48;;;;;;;13.23;6.20;;;8.10;99.90;;;;;;5022482;28;20217;-70
2022/11/20 08:50:15;;;;;;;10.67;5.87;;;8.10;99.90;;;;;;5019449;28;20706;-72
2022/11/20 08:52:41;;;;;;;11.70;5.30;;;8.10;99.90;;;;;;5036030;28;20186;-71
2022/11/20 08:55:07;;;;;;;7.50;5.03;;;8.10;99.90;;;;;;5031833;28;20459;-71
2022/11/20 08:57:34;;;;;;;9.37;6.30;;;8.00;99.90;;;;;;5025322;28;20554;-71
2022/11/20 09:00:00;;;;;;;7.70;5.47;;;8.00;99.90;;;;;;5041131;22;20564;-73
2022/11/20 09:02:26;;;;;;;11.20;5.80;;;8.00;99.90;;;;;;5010706;28;20488;-72
2022/11/20 09:04:53;;;;;;;7.73;5.47;;;8.00;99.90;;;;;;5011558;28;20229;-69
2022/11/20 09:07:19;;;;;;;8.23;6.00;;;8.00;99.90;;;;;;5011728;28;20170;-72
2022/11/20 09:09:44;;;;;;;8.53;5.90;;;8.00;99.90;;;;;;5012306;28;20507;-72
2022/11/20 09:12:10;;;;;;;10.90;6.00;;;8.00;99.90;;;;;;5012193;28;20167;-72
2022/11/20 09:14:35;;;;;;;6.87;5.33;;;8.00;99.90;;;;;;5012342;28;20197;-72
2022/11/20 09:17:01;;;;;;;11.20;6.90;;;7.90;99.90;;;;;;5012308;28;20185;-72
2022/11/20 09:19:26;;;;;;;7.83;5.87;;;7.90;99.90;;;;;;5011583;28;20194;-72
2022/11/20 09:21:52;;;;;;;9.07;6.47;;;7.90;99.90;;;;;;5011946;28;20202;-72
2022/11/20 09:24:18;;;;;;;8.30;5.67;;;8.00;99.90;;;;;;5011696;28;20193;-73
2022/11/20 09:26:44;;;;;;;7.73;5.37;;;8.10;99.90;;;;;;5010721;28;20173;-72
2022/11/20 09:29:10;;;;;;;9.50;6.57;;;8.20;99.90;;;;;;5011889;28;20906;-72
2022/11/20 09:31:35;;;;;;;12.70;8.47;;;8.20;99.90;;;;;;5011977;28;20175;-72
2022/11/20 09:34:01;;;;;;;13.70;7.83;;;8.30;99.90;;;;;;5010825;28;20266;-72
2022/11/20 09:36:26;;;;;;;13.93;7.97;;;8.30;99.90;;;;;;5011830;28;20527;-73
2022/11/20 09:38:52;;;;;;;10.20;6.63;;;8.40;99.90;;;;;;5010980;28;20593;-71
2022/11/20 09:41:45;;;;;;;9.87;6.90;;;8.40;99.90;;;;;;5011537;28;20573;-72
2022/11/20 09:44:17;;;;;;;8.40;6.07;;;8.50;99.90;;;;;;5026240;28;20269;-72
2022/11/20 09:46:53;;;;;;;7.93;6.10;;;8.60;99.90;;;;;;5011607;28;20405;-72
2022/11/20 09:49:27;;;;;;;9.03;5.40;;;8.60;99.90;;;;;;5011400;28;20453;-71
2022/11/20 09:51:58;;;;;;;9.63;6.60;;;8.60;99.90;;;;;;5011289;28;20405;-72
2022/11/20 09:54:38;;;;;;;10.47;5.70;;;8.60;99.90;;;;;;5011358;28;20428;-72
2022/11/20 09:57:11;;;;;;;10.70;6.57;;;8.50;99.90;;;;;;5011240;28;20421;-74
2022/11/20 10:00:02;;;;;;;11.37;6.40;;;8.50;99.90;;;;;;5011320;28;20453;-72
2022/11/20 10:02:40;;;;;;;10.63;6.90;;;8.50;99.90;;;;;;5010483;28;20480;-72
2022/11/20 10:05:13;;;;;;;7.73;6.17;;;8.60;99.90;;;;;;5010532;28;20489;-72
2022/11/20 10:07:55;;;;;;;7.07;5.77;;;8.50;99.90;;;;;;5011147;28;20398;-72
2022/11/20 10:10:30;;;;;;;9.10;6.83;;;8.40;99.90;;;;;;5010141;28;20487;-74
2022/11/20 10:12:55;;;;;;;8.93;5.97;;;8.50;99.90;;;;;;5011142;28;20552;-72
2022/11/20 10:15:27;;;;;;;10.03;7.60;;;8.50;99.90;;;;;;5012192;28;20460;-72
2022/11/20 10:18:15;;;;;;;7.30;5.33;;;8.50;99.90;;;;;;5011232;28;20175;-74
2022/11/20 10:20:53;;;;;;;7.23;5.87;;;8.60;99.90;;;;;;5010529;28;20453;-72
2022/11/20 10:23:50;;;;;;;7.13;5.83;;;8.60;99.90;;;;;;5009113;28;20421;-74
2022/11/20 10:26:33;;;;;;;7.03;5.17;;;8.60;99.90;;;;;;5010511;28;20433;-72
2022/11/20 10:29:10;;;;;;;5.93;5.30;;;8.60;99.90;;;;;;5011098;28;20429;-72
2022/11/20 10:31:39;;;;;;;6.10;5.20;;;8.60;99.90;;;;;;5009473;28;20532;-72
2022/11/20 10:34:26;;;;;;;8.67;5.10;;;8.50;99.90;;;;;;5010455;28;20444;-72
2022/11/20 10:37:11;;;;;;;8.00;4.97;;;8.50;99.90;;;;;;5010733;28;20455;-72
2022/11/20 10:40:14;;;;;;;8.03;5.13;;;8.60;99.90;;;;;;5009608;28;20552;-73
2022/11/20 10:42:56;;;;;;;8.00;5.10;;;8.60;99.90;;;;;;5002661;28;20445;-72
2022/11/20 10:45:24;;;;;;;5.07;4.57;;;8.70;99.90;;;;;;5007611;28;20429;-71
2022/11/20 10:48:15;;;;;;;5.90;4.03;;;8.90;99.90;;;;;;5007654;28;20421;-72
2022/11/20 10:50:54;;;;;;;7.43;5.27;;;8.80;99.90;;;;;;5007951;28;20437;-73
2022/11/20 10:54:02;;;;;;;6.07;4.60;;;8.90;99.90;;;;;;5007104;28;20934;-74
2022/11/20 10:56:35;;;;;;;5.63;4.20;;;8.90;99.90;;;;;;5001877;28;20433;-72
2022/11/20 10:59:19;;;;;;;3.80;3.40;;;8.80;99.90;;;;;;5006303;28;20959;-72
2022/11/20 11:01:44;;;;;;;5.67;3.50;;;8.80;99.90;;;;;;5001792;28;20489;-73
2022/11/20 11:04:30;;;;;;;9.17;4.00;;;8.80;99.90;;;;;;5009193;28;20425;-72
2022/11/20 11:07:05;;;;;;;5.03;3.80;;;9.00;99.90;;;;;;5008285;28;20585;-74
2022/11/20 11:09:37;;;;;;;3.37;3.07;;;9.10;99.90;;;;;;5010169;28;20854;-73
2022/11/20 11:12:07;;;;;;;4.03;3.10;;;9.30;99.20;;;;;;5008267;28;20433;-72
2022/11/20 11:14:59;;;;;;;8.03;3.77;;;11.10;88.70;;;;;;5006404;28;20414;-73
2022/11/20 11:17:30;;;;;;;5.17;3.10;;;11.90;39.60;;;;;;5007518;28;20445;-73
2022/11/20 11:19:59;;;;;;;3.57;3.00;;;12.10;39.80;;;;;;5004736;28;20457;-73
2022/11/20 11:22:24;;;;;;;3.47;3.17;;;12.70;40.20;;;;;;5007182;28;20987;-74
2022/11/20 11:24:54;;;;;;;3.70;3.30;;;13.00;12.10;;;;;;5009134;28;20429;-73
2022/11/20 11:27:19;;;;;;;5.70;3.60;;;13.00;14.50;;;;;;5008914;28;20222;-73
2022/11/20 11:29:46;;;;;;;5.40;3.50;;;13.30;12.30;;;;;;5008919;28;20506;-75
2022/11/20 11:32:22;;;;;;;4.50;3.20;;;13.30;17.30;;;;;;5009408;28;20187;-73
2022/11/20 11:35:06;;;;;;;5.40;3.83;;;12.90;15.20;;;;;;5007759;28;20491;-72
2022/11/20 11:37:39;;;;;;;6.43;3.53;;;12.30;18.70;;;;;;5004496;28;21011;-72
2022/11/20 11:40:05;;;;;;;4.70;3.13;;;12.00;29.10;;;;;;5005707;28;21001;-72
2022/11/20 11:42:31;;;;;;;4.13;3.17;;;11.90;34.40;;;;;;5007769;28;20473;-73
2022/11/20 11:45:05;;;;;;;4.03;3.20;;;11.70;16.90;;;;;;5008921;28;20464;-73
2022/11/20 11:47:42;;;;;;;5.33;3.13;;;11.60;26.70;;;;;;5007450;28;20584;-73
2022/11/20 11:50:08;;;;;;;4.27;3.10;;;11.40;15.50;;;;;;5001883;28;20432;-74
2022/11/20 11:52:45;;;;;;;3.57;2.67;;;11.60;27.90;;;;;;5005275;28;21030;-73
2022/11/20 11:55:30;;;;;;;4.13;2.63;;;11.80;17.00;;;;;;5005467;28;20178;-73
2022/11/20 11:58:33;;;;;;;3.53;2.70;;;11.80;13.20;;;;;;5005086;28;20466;-73
2022/11/20 12:01:21;;;;;;;2.87;2.50;;;11.60;11.80;;;;;;5005384;28;20522;-72
2022/11/20 12:04:05;;;;;;;4.17;2.77;;;11.50;9.70;;;;;;5006696;28;20433;-73
2022/11/20 12:06:32;;;;;;;5.63;2.60;;;11.30;11.80;;;;;;5007233;28;20515;-74
2022/11/20 12:09:11;;;;;;;6.70;2.47;;;11.40;8.10;;;;;;5008051;28;20939;-73
2022/11/20 12:11:53;;;;;;;3.30;3.00;;;11.30;1.00;;;;;;5007713;28;20939;-73
2022/11/20 12:14:27;;;;;;;4.13;2.70;;;11.40;1.00;;;;;;5007530;28;20508;-73
2022/11/20 12:16:55;;;;;;;4.57;2.40;;;11.50;1.00;;;;;;5007289;28;20942;-72
2022/11/20 12:19:21;;;;;;;2.87;2.20;;;11.60;1.00;;;;;;5006930;28;20840;-73
2022/11/20 12:22:04;;;;;;;3.27;2.60;;;11.70;1.00;;;;;;5008313;28;20500;-73
2022/11/20 12:25:14;;;;;;;4.00;1.97;;;11.60;1.00;;;;;;5005025;28;20661;-73
2022/11/20 12:28:14;;;;;;;5.33;2.43;;;12.70;1.00;;;;;;5007391;28;20440;-74
2022/11/20 12:30:48;;;;;;;4.90;2.03;;;16.40;1.00;;;;;;5007503;28;20951;-73
2022/11/20 12:33:38;;;;;;;5.30;2.50;;;17.90;1.00;;;;;;5009155;28;20437;-73
2022/11/20 12:36:18;;;;;;;4.47;2.73;;;19.90;1.00;;;;;;5009186;28;20425;-74
2022/11/20 12:39:05;;;;;;;3.60;2.70;;;16.40;1.00;;;;;;5011615;28;20440;-74
2022/11/20 12:45:09;;;;;;;8.30;3.37;;;14.60;1.00;;;;;;5007785;28;20419;-73
2022/11/20 12:47:59;;;;;;;3.60;1.70;;;13.70;1.00;;;;;;5009413;28;20447;-73
2022/11/20 12:50:40;;;;;;;4.20;2.50;;;14.10;1.00;;;;;;5011071;28;20441;-73
2022/11/20 12:53:25;;;;;;;4.13;2.50;;;14.00;1.00;;;;;;5007085;28;20487;-73
2022/11/20 12:56:05;;;;;;;12.43;4.73;;;13.40;1.00;;;;;;5011090;28;20428;-72
2022/11/20 12:58:43;;;;;;;7.80;2.73;;;12.70;1.00;;;;;;5010925;28;20535;-73
2022/11/20 13:01:40;;;;;;;13.13;4.70;;;12.60;1.00;;;;;;4997274;28;20469;-72
2022/11/20 13:04:36;;;;;;;8.17;5.00;;;12.70;1.00;;;;;;5002289;28;20447;-72
2022/11/20 13:07:06;;;;;;;8.73;3.77;;;12.60;1.00;;;;;;5003057;28;20440;-73
2022/11/20 13:09:33;;;;;;;4.73;2.47;;;12.60;1.00;;;;;;5008998;28;20445;-72
2022/11/20 13:12:05;;;;;;;7.13;2.60;;;12.50;1.00;;;;;;5011079;28;20425;-73
2022/11/20 13:14:45;;;;;;;8.97;4.07;;;12.40;1.00;;;;;;5009792;28;20437;-72
2022/11/20 13:17:18;;;;;;;8.60;4.07;;;12.20;1.00;;;;;;5009204;28;20930;-73